Terminal Aerodrome Forecast
Issued by NWS Memphis, TN

Home | Current Version | Previous Version | Text Only | Print | Product List | Glossary On
Versions: 1 2 3 4 5 6 7 8 9 10 11 12 13 14
000
FTUS44 KMEG 241126
TAFJBR
TAF
KJBR 241126Z 2412/2512 17008KT P6SM BKN050
     FM241400 18015G22KT P6SM SCT050 BKN100
     FM241800 18015G25KT P6SM VCTS SCT025 BKN050CB BKN200
      TEMPO 2501/2503 3SM TSRA BR BKN025CB
     FM250300 18016G26KT P6SM SHRA VCTS OVC035CB=

USA.gov is the U.S. government's official web portal to all federal, state and local government web resources and services.